createdAt,value
2022-12-31T00:01:28.307Z,8.00
2022-12-31T00:03:56.491Z,8.00
2022-12-31T00:06:29.699Z,8.00
2022-12-31T00:08:58.325Z,8.00
2022-12-31T00:11:27.151Z,8.00
2022-12-31T00:13:54.505Z,8.00
2022-12-31T00:16:29.089Z,8.00
2022-12-31T00:19:01.852Z,8.00
2022-12-31T00:21:30.625Z,8.00
2022-12-31T00:23:57.737Z,8.00
2022-12-31T00:26:27.986Z,8.10
2022-12-31T00:28:56.497Z,8.10
2022-12-31T00:31:24.487Z,8.10
2022-12-31T00:33:52.098Z,8.10
2022-12-31T00:36:25.130Z,8.10
2022-12-31T00:38:53.981Z,8.10
2022-12-31T00:41:21.776Z,8.10
2022-12-31T00:43:49.008Z,8.10
2022-12-31T00:46:16.726Z,8.10
2022-12-31T00:48:44.102Z,8.10
2022-12-31T00:51:13.987Z,8.10
2022-12-31T00:53:41.586Z,8.10
2022-12-31T00:56:17.322Z,8.10
2022-12-31T00:58:44.705Z,8.10
2022-12-31T01:01:26.770Z,8.10
2022-12-31T01:03:58.354Z,8.10
2022-12-31T01:06:25.989Z,8.10
2022-12-31T01:08:53.724Z,8.10
2022-12-31T01:11:24.049Z,8.10
2022-12-31T01:14:01.503Z,8.10
2022-12-31T01:16:39.094Z,8.10
2022-12-31T01:19:09.309Z,8.10
2022-12-31T01:21:38.317Z,8.10
2022-12-31T01:24:05.834Z,8.20
2022-12-31T01:26:32.921Z,8.20
2022-12-31T01:28:59.898Z,8.20
2022-12-31T01:31:27.390Z,8.20
2022-12-31T01:33:54.817Z,8.20
2022-12-31T01:36:27.611Z,8.20
2022-12-31T01:38:56.557Z,8.20
2022-12-31T01:41:27.647Z,8.20
2022-12-31T01:43:57.578Z,8.20
2022-12-31T01:46:36.294Z,8.20
2022-12-31T01:49:10.775Z,8.20
2022-12-31T01:51:39.303Z,8.20
2022-12-31T01:54:08.719Z,8.20
2022-12-31T01:56:38.605Z,8.30
2022-12-31T01:59:07.995Z,8.30
2022-12-31T02:01:38.387Z,8.30
2022-12-31T02:04:12.155Z,8.30
2022-12-31T02:06:44.591Z,8.30
2022-12-31T02:09:12.123Z,8.30
2022-12-31T02:11:39.120Z,8.30
2022-12-31T02:14:31.916Z,8.30
2022-12-31T02:17:32.565Z,8.40
2022-12-31T02:20:30.478Z,8.40
2022-12-31T02:23:06.350Z,8.40
2022-12-31T02:25:45.249Z,8.40
2022-12-31T02:28:50.277Z,8.50
2022-12-31T02:31:24.270Z,8.50
2022-12-31T02:34:30.165Z,8.50
2022-12-31T02:37:00.242Z,8.50
2022-12-31T02:39:31.861Z,8.50
2022-12-31T02:42:00.593Z,8.60
2022-12-31T02:44:33.066Z,8.60
2022-12-31T02:47:08.981Z,8.60
2022-12-31T02:49:42.025Z,8.60
2022-12-31T02:52:40.683Z,8.60
2022-12-31T02:55:33.144Z,8.60
2022-12-31T02:58:11.835Z,8.60
2022-12-31T03:01:14.406Z,8.60
2022-12-31T03:03:42.433Z,8.60
2022-12-31T03:06:11.227Z,8.60
2022-12-31T03:09:02.994Z,8.60
2022-12-31T03:11:48.587Z,8.70
2022-12-31T03:14:15.713Z,8.70
2022-12-31T03:16:42.665Z,8.70
2022-12-31T03:19:28.071Z,8.70
2022-12-31T03:22:13.710Z,8.70
2022-12-31T03:24:59.383Z,8.70
2022-12-31T03:27:26.371Z,8.70
2022-12-31T03:29:53.391Z,8.70
2022-12-31T03:32:20.421Z,8.70
2022-12-31T03:34:47.381Z,8.70
2022-12-31T03:37:14.388Z,8.70
2022-12-31T03:39:41.429Z,8.70
2022-12-31T03:42:08.479Z,8.70
2022-12-31T03:44:35.523Z,8.70
2022-12-31T03:47:02.674Z,8.70
2022-12-31T03:49:29.657Z,8.70
2022-12-31T03:51:56.704Z,8.60
2022-12-31T03:54:23.698Z,8.70
2022-12-31T03:56:53.032Z,8.70
2022-12-31T03:59:23.733Z,8.70
2022-12-31T04:01:50.840Z,8.70
2022-12-31T04:04:17.894Z,8.60
2022-12-31T04:06:44.927Z,8.70
2022-12-31T04:09:11.897Z,8.60
2022-12-31T04:11:38.938Z,8.70
2022-12-31T04:14:06.143Z,8.60
2022-12-31T04:19:00.633Z,8.60
2022-12-31T04:21:33.086Z,8.60
2022-12-31T04:24:02.710Z,8.60
2022-12-31T04:26:30.220Z,8.70
2022-12-31T04:28:58.469Z,8.70
2022-12-31T04:31:25.501Z,8.70
2022-12-31T04:33:52.530Z,8.70
2022-12-31T04:36:19.570Z,8.70
2022-12-31T04:38:46.585Z,8.70
2022-12-31T04:41:16.876Z,8.70
2022-12-31T04:46:21.963Z,8.70
2022-12-31T04:48:49.087Z,8.70
2022-12-31T04:51:16.161Z,8.70
2022-12-31T04:53:43.914Z,8.70
2022-12-31T04:56:11.393Z,8.70
2022-12-31T04:58:39.186Z,8.70
2022-12-31T05:01:06.761Z,8.70
2022-12-31T05:03:34.643Z,8.70
2022-12-31T05:06:11.169Z,8.70
2022-12-31T05:08:38.201Z,8.70
2022-12-31T05:11:05.640Z,8.70
2022-12-31T05:13:33.567Z,8.70
2022-12-31T05:16:02.071Z,8.70
2022-12-31T05:18:29.681Z,8.70
2022-12-31T05:20:56.905Z,8.70
2022-12-31T05:23:24.444Z,8.70
2022-12-31T05:25:52.212Z,8.70
2022-12-31T05:28:19.914Z,8.70
2022-12-31T05:30:49.918Z,8.70
2022-12-31T05:33:18.151Z,8.70
2022-12-31T05:35:45.878Z,8.70
2022-12-31T05:38:12.952Z,8.80
2022-12-31T05:40:39.923Z,8.80
2022-12-31T05:43:06.945Z,8.70
2022-12-31T05:45:34.058Z,8.80
2022-12-31T05:48:01.103Z,8.70
2022-12-31T05:50:28.123Z,8.70
2022-12-31T05:52:56.747Z,8.80
2022-12-31T05:55:24.421Z,8.70
2022-12-31T05:57:51.429Z,8.80
2022-12-31T06:00:18.722Z,8.70
2022-12-31T06:02:45.816Z,8.80
2022-12-31T06:05:13.279Z,8.80
2022-12-31T06:07:40.391Z,8.80
2022-12-31T06:10:08.100Z,8.80
2022-12-31T06:12:35.618Z,8.80
2022-12-31T06:15:02.900Z,8.70
2022-12-31T06:17:32.485Z,8.70
2022-12-31T06:19:59.933Z,8.70
2022-12-31T06:22:27.159Z,8.80
2022-12-31T06:24:54.532Z,8.80
2022-12-31T06:27:21.589Z,8.80
2022-12-31T06:29:49.509Z,8.80
2022-12-31T06:32:16.644Z,8.80
2022-12-31T06:34:43.602Z,8.70
2022-12-31T06:37:10.562Z,8.80
2022-12-31T06:39:37.901Z,8.70
2022-12-31T06:42:05.314Z,8.70
2022-12-31T06:44:32.268Z,8.70
2022-12-31T06:46:59.213Z,8.70
2022-12-31T06:49:26.327Z,8.70
2022-12-31T06:51:53.316Z,8.70
2022-12-31T06:54:20.466Z,8.70
2022-12-31T06:56:47.670Z,8.70
2022-12-31T06:59:35.019Z,8.70
2022-12-31T07:02:21.690Z,8.70
2022-12-31T07:05:29.529Z,8.70
2022-12-31T07:08:16.556Z,8.70
2022-12-31T07:10:55.889Z,8.70
2022-12-31T07:13:32.129Z,8.70
2022-12-31T07:16:18.005Z,8.70
2022-12-31T07:19:42.353Z,8.70
2022-12-31T07:22:16.928Z,8.70
2022-12-31T07:24:44.842Z,8.70
2022-12-31T07:27:30.814Z,8.70
2022-12-31T07:30:24.208Z,8.70
2022-12-31T07:33:27.924Z,8.70
2022-12-31T07:36:03.801Z,8.70
2022-12-31T07:38:55.070Z,8.70
2022-12-31T07:41:43.827Z,8.70
2022-12-31T07:44:13.615Z,8.70
2022-12-31T07:47:00.426Z,8.80
2022-12-31T07:49:29.370Z,8.80
2022-12-31T07:51:56.571Z,8.80
2022-12-31T07:54:23.634Z,8.70
2022-12-31T07:56:51.330Z,8.80
2022-12-31T07:59:48.917Z,8.80
2022-12-31T08:03:00.611Z,8.80
2022-12-31T08:05:50.189Z,8.70
2022-12-31T08:08:29.647Z,8.80
2022-12-31T08:11:28.723Z,8.80
2022-12-31T08:13:56.999Z,8.80
2022-12-31T08:16:24.383Z,8.80
2022-12-31T08:18:51.678Z,8.80
2022-12-31T08:21:38.934Z,8.80
2022-12-31T08:24:30.159Z,8.70
2022-12-31T08:27:23.958Z,8.70
2022-12-31T08:30:12.016Z,8.70
2022-12-31T08:33:00.516Z,8.70
2022-12-31T08:35:39.993Z,8.60
2022-12-31T08:38:36.038Z,8.60
2022-12-31T08:41:24.639Z,8.60
2022-12-31T08:44:19.359Z,8.60
2022-12-31T08:46:49.387Z,8.60
2022-12-31T08:49:16.647Z,8.50
2022-12-31T08:51:45.406Z,8.50
2022-12-31T08:54:13.092Z,8.50
2022-12-31T08:56:46.029Z,8.50
2022-12-31T08:59:52.272Z,8.50
2022-12-31T09:02:48.564Z,8.50
2022-12-31T09:05:23.635Z,8.40
2022-12-31T09:08:29.653Z,8.40
2022-12-31T09:11:04.488Z,8.40
2022-12-31T09:13:39.989Z,8.30
2022-12-31T09:16:19.121Z,8.30
2022-12-31T09:18:46.351Z,8.30
2022-12-31T09:21:15.180Z,8.30
2022-12-31T09:23:43.581Z,8.30
2022-12-31T09:26:47.944Z,8.30
2022-12-31T09:29:20.413Z,8.30
2022-12-31T09:31:53.962Z,8.30
2022-12-31T09:34:27.325Z,8.30
2022-12-31T09:36:59.817Z,8.30
2022-12-31T09:40:03.135Z,8.30
2022-12-31T09:43:08.701Z,8.30
2022-12-31T09:45:56.592Z,8.30
2022-12-31T09:48:37.603Z,8.30
2022-12-31T09:51:50.776Z,8.30
2022-12-31T09:55:05.529Z,8.30
2022-12-31T09:58:02.911Z,8.40
2022-12-31T10:00:58.742Z,8.40
2022-12-31T10:03:58.235Z,8.40
2022-12-31T10:06:42.983Z,8.40
2022-12-31T10:09:50.160Z,8.40
2022-12-31T10:12:46.422Z,8.40
2022-12-31T10:15:49.515Z,8.40
2022-12-31T10:18:35.364Z,8.50
2022-12-31T10:21:19.024Z,8.50
2022-12-31T10:23:52.330Z,8.50
2022-12-31T10:27:02.942Z,8.50
2022-12-31T10:29:56.916Z,8.50
2022-12-31T10:32:54.009Z,8.50
2022-12-31T10:36:03.520Z,8.50
2022-12-31T10:38:55.681Z,8.50
2022-12-31T10:41:59.296Z,8.50
2022-12-31T10:44:47.033Z,8.60
2022-12-31T10:47:41.728Z,8.60
2022-12-31T10:50:46.651Z,8.60
2022-12-31T10:53:47.345Z,8.60
2022-12-31T10:56:33.170Z,8.60
2022-12-31T10:59:23.553Z,8.60
2022-12-31T11:01:50.762Z,8.60
2022-12-31T11:04:17.748Z,8.60
2022-12-31T11:07:13.991Z,8.60
2022-12-31T11:10:08.977Z,8.60
2022-12-31T11:13:09.572Z,8.60
2022-12-31T11:15:49.917Z,8.60
2022-12-31T11:18:51.752Z,8.60
2022-12-31T11:21:34.194Z,8.70
2022-12-31T11:24:09.288Z,8.70
2022-12-31T11:26:58.144Z,8.70
2022-12-31T11:30:00.846Z,8.70
2022-12-31T11:32:54.718Z,8.70
2022-12-31T11:35:40.296Z,8.70
2022-12-31T11:38:29.113Z,8.80
2022-12-31T11:41:43.040Z,8.70
2022-12-31T11:44:29.302Z,8.80
2022-12-31T11:47:17.947Z,8.80
2022-12-31T11:49:50.896Z,8.80
2022-12-31T11:52:30.232Z,8.80
2022-12-31T11:55:22.917Z,8.90
2022-12-31T11:57:52.410Z,8.90
2022-12-31T12:00:22.428Z,8.90
2022-12-31T12:02:54.013Z,8.90
2022-12-31T12:05:23.883Z,9.00
2022-12-31T12:07:52.157Z,9.00
2022-12-31T12:10:36.125Z,9.00
2022-12-31T12:13:20.867Z,9.00
2022-12-31T12:15:58.608Z,9.10
2022-12-31T12:18:48.736Z,9.10
2022-12-31T12:21:22.393Z,9.20
2022-12-31T12:24:03.074Z,9.20
2022-12-31T12:26:38.389Z,9.20
2022-12-31T12:29:21.075Z,9.30
2022-12-31T12:32:36.600Z,9.40
2022-12-31T12:35:14.930Z,9.40
2022-12-31T12:37:42.064Z,9.50
2022-12-31T12:40:21.973Z,9.60
2022-12-31T12:42:51.490Z,9.60
2022-12-31T12:45:27.652Z,9.70
2022-12-31T12:48:01.266Z,9.70
2022-12-31T12:50:43.202Z,9.80
2022-12-31T12:53:32.482Z,9.80
2022-12-31T12:56:08.224Z,9.80
2022-12-31T12:59:13.858Z,9.90
2022-12-31T13:02:01.205Z,9.90
2022-12-31T13:04:51.312Z,9.90
2022-12-31T13:07:30.402Z,10.00
2022-12-31T13:10:23.011Z,10.00
2022-12-31T13:13:28.856Z,10.00
2022-12-31T13:16:22.842Z,10.00
2022-12-31T13:19:34.555Z,10.00
2022-12-31T13:22:16.668Z,10.00
2022-12-31T13:25:00.940Z,10.10
2022-12-31T13:27:50.371Z,10.10
2022-12-31T13:30:36.991Z,10.10
2022-12-31T13:33:19.049Z,10.10
2022-12-31T13:36:04.800Z,10.10
2022-12-31T13:38:46.159Z,10.10
2022-12-31T13:41:19.219Z,10.10
2022-12-31T13:44:01.194Z,10.10
2022-12-31T13:46:51.541Z,10.10
2022-12-31T13:49:37.310Z,10.10
2022-12-31T13:52:11.615Z,10.10
2022-12-31T13:55:09.571Z,10.10
2022-12-31T13:57:39.381Z,10.10
2022-12-31T14:00:26.806Z,10.10
2022-12-31T14:03:14.233Z,10.20
2022-12-31T14:05:49.036Z,10.20
2022-12-31T14:08:16.184Z,10.10
2022-12-31T14:10:58.312Z,10.10
2022-12-31T14:13:56.381Z,10.10
2022-12-31T14:16:44.282Z,10.10
2022-12-31T14:19:14.260Z,10.10
2022-12-31T14:22:00.045Z,10.10
2022-12-31T14:24:47.721Z,10.10
2022-12-31T14:27:20.554Z,10.10
2022-12-31T14:30:07.210Z,10.10
2022-12-31T14:33:10.800Z,10.10
2022-12-31T14:36:13.313Z,10.10
2022-12-31T14:38:47.579Z,10.10
2022-12-31T14:42:01.427Z,10.10
2022-12-31T14:44:28.442Z,10.10
2022-12-31T14:47:27.056Z,10.10
2022-12-31T14:50:14.094Z,10.10
2022-12-31T14:52:50.176Z,10.00
2022-12-31T14:55:19.849Z,10.00
2022-12-31T14:58:25.740Z,10.00
2022-12-31T15:00:40.263Z,10.00
2022-12-31T15:03:16.375Z,10.00
2022-12-31T15:06:14.183Z,10.00
2022-12-31T15:08:52.765Z,10.00
2022-12-31T15:11:57.542Z,10.00
2022-12-31T15:15:00.468Z,9.90
2022-12-31T15:17:52.995Z,9.90
2022-12-31T15:20:40.419Z,9.90
2022-12-31T15:23:42.175Z,9.90
2022-12-31T15:26:24.980Z,9.90
2022-12-31T15:29:23.920Z,9.90
2022-12-31T15:31:51.798Z,9.90
2022-12-31T15:34:36.609Z,9.90
2022-12-31T15:37:38.908Z,9.80
2022-12-31T15:40:20.617Z,9.80
2022-12-31T15:43:11.629Z,9.80
2022-12-31T15:45:40.976Z,9.80
2022-12-31T15:48:52.667Z,9.80
2022-12-31T15:51:28.239Z,9.80
2022-12-31T15:53:58.365Z,9.80
2022-12-31T15:56:48.595Z,9.80
2022-12-31T15:59:19.076Z,9.80
2022-12-31T16:01:47.607Z,9.80
2022-12-31T16:04:14.476Z,9.70
2022-12-31T16:06:44.894Z,9.80
2022-12-31T16:09:26.535Z,9.80
2022-12-31T16:11:54.873Z,9.80
2022-12-31T16:14:40.512Z,9.70
2022-12-31T16:17:21.719Z,9.70
2022-12-31T16:19:48.739Z,9.80
2022-12-31T16:22:29.224Z,9.80
2022-12-31T16:27:48.373Z,9.70
2022-12-31T16:30:26.240Z,9.80
2022-12-31T16:32:55.894Z,9.80
2022-12-31T16:35:30.008Z,9.70
2022-12-31T16:38:12.324Z,9.80
2022-12-31T16:41:02.830Z,9.70
2022-12-31T16:43:43.319Z,9.80
2022-12-31T16:46:26.789Z,9.80
2022-12-31T16:49:13.963Z,9.80
2022-12-31T16:51:41.458Z,9.80
2022-12-31T16:54:18.906Z,9.70
2022-12-31T16:56:46.013Z,9.80
2022-12-31T16:59:24.772Z,9.80
2022-12-31T17:01:55.899Z,9.80
2022-12-31T17:04:24.622Z,9.80
2022-12-31T17:06:51.710Z,9.80
2022-12-31T17:09:22.256Z,9.80
2022-12-31T17:11:53.424Z,9.80
2022-12-31T17:14:26.504Z,9.80
2022-12-31T17:17:04.351Z,9.70
2022-12-31T17:19:47.343Z,9.80
2022-12-31T17:22:34.412Z,9.80
2022-12-31T17:25:05.894Z,9.70
2022-12-31T17:27:34.503Z,9.70
2022-12-31T17:30:19.936Z,9.80
2022-12-31T17:32:50.062Z,9.80
2022-12-31T17:35:31.103Z,9.80
2022-12-31T17:38:36.807Z,9.80
2022-12-31T17:41:23.273Z,9.80
2022-12-31T17:43:57.183Z,9.70
2022-12-31T17:46:25.690Z,9.70
2022-12-31T17:48:55.131Z,9.70
2022-12-31T17:51:24.323Z,9.80
2022-12-31T17:53:51.985Z,9.80
2022-12-31T17:56:20.453Z,9.70
2022-12-31T17:58:51.516Z,9.70
2022-12-31T18:01:21.547Z,9.70
2022-12-31T18:03:48.718Z,9.70
2022-12-31T18:06:17.198Z,9.70
2022-12-31T18:08:44.538Z,9.70
2022-12-31T18:11:20.897Z,9.70
2022-12-31T18:13:48.651Z,9.70
2022-12-31T18:16:16.012Z,9.70
2022-12-31T18:18:45.240Z,9.70
2022-12-31T18:21:30.113Z,9.70
2022-12-31T18:26:24.828Z,9.80
2022-12-31T18:28:52.887Z,9.80
2022-12-31T18:31:25.267Z,9.80
2022-12-31T18:33:54.134Z,9.80
2022-12-31T18:36:22.455Z,9.70
2022-12-31T18:38:49.916Z,9.70
2022-12-31T18:41:18.399Z,9.70
2022-12-31T18:43:45.738Z,9.70
2022-12-31T18:46:15.130Z,9.70
2022-12-31T18:48:42.223Z,9.70
2022-12-31T18:51:14.976Z,9.70
2022-12-31T18:53:42.018Z,9.70
2022-12-31T18:56:18.264Z,9.70
2022-12-31T18:58:46.438Z,9.70
2022-12-31T19:01:32.872Z,9.70
2022-12-31T19:04:03.483Z,9.70
2022-12-31T19:06:31.091Z,9.70
2022-12-31T19:09:00.842Z,9.70
2022-12-31T19:11:28.592Z,9.70
2022-12-31T19:13:55.579Z,9.70
2022-12-31T19:16:22.649Z,9.60
2022-12-31T19:18:50.861Z,9.60
2022-12-31T19:21:22.903Z,9.60
2022-12-31T19:23:50.994Z,9.60
2022-12-31T19:26:21.145Z,9.60
2022-12-31T19:28:50.131Z,9.60
2022-12-31T19:31:17.976Z,9.60
2022-12-31T19:33:45.488Z,9.60
2022-12-31T19:36:19.853Z,9.60
2022-12-31T19:38:47.257Z,9.60
2022-12-31T19:41:16.740Z,9.60
2022-12-31T19:43:44.036Z,9.60
2022-12-31T19:46:16.254Z,9.60
2022-12-31T19:48:43.814Z,9.60
2022-12-31T19:51:19.172Z,9.60
2022-12-31T19:53:47.526Z,9.60
2022-12-31T19:56:17.148Z,9.60
2022-12-31T19:58:44.215Z,9.60
2022-12-31T20:01:29.431Z,9.60
2022-12-31T20:03:56.972Z,9.60
2022-12-31T20:06:23.986Z,9.60
2022-12-31T20:08:51.025Z,9.60
2022-12-31T20:11:21.918Z,9.60
2022-12-31T20:13:50.373Z,9.60
2022-12-31T20:16:18.693Z,9.50
2022-12-31T20:18:47.347Z,9.50
2022-12-31T20:21:18.006Z,9.50
2022-12-31T20:23:45.629Z,9.40
2022-12-31T20:26:12.858Z,9.40
2022-12-31T20:28:39.984Z,9.30
2022-12-31T20:31:12.304Z,9.30
2022-12-31T20:33:39.853Z,9.30
2022-12-31T20:36:09.490Z,9.20
2022-12-31T20:38:36.805Z,9.20
2022-12-31T20:41:09.341Z,9.20
2022-12-31T20:43:37.026Z,9.10
2022-12-31T20:46:21.525Z,9.10
2022-12-31T20:48:50.111Z,9.00
2022-12-31T20:51:17.606Z,9.00
2022-12-31T20:53:48.622Z,9.00
2022-12-31T20:56:16.135Z,9.00
2022-12-31T20:58:43.542Z,9.00
2022-12-31T21:01:11.719Z,9.00
2022-12-31T21:06:28.933Z,8.90
2022-12-31T21:08:57.917Z,8.90
2022-12-31T21:11:43.309Z,8.90
2022-12-31T21:14:10.404Z,8.90
2022-12-31T21:16:39.997Z,8.90
2022-12-31T21:19:07.314Z,8.80
2022-12-31T21:21:34.365Z,8.80
2022-12-31T21:24:01.758Z,8.70
2022-12-31T21:26:29.216Z,8.70
2022-12-31T21:28:56.529Z,8.70
2022-12-31T21:31:23.589Z,8.60
2022-12-31T21:33:50.639Z,8.60
2022-12-31T21:36:20.280Z,8.50
2022-12-31T21:38:47.237Z,8.50
2022-12-31T21:41:36.652Z,8.50
2022-12-31T21:44:03.955Z,8.50
2022-12-31T21:46:31.235Z,8.40
2022-12-31T21:49:01.401Z,8.40
2022-12-31T21:51:30.592Z,8.40
2022-12-31T21:53:58.115Z,8.40
2022-12-31T21:56:25.399Z,8.40
2022-12-31T21:59:13.346Z,8.30
2022-12-31T22:01:59.745Z,8.30
2022-12-31T22:07:13.989Z,8.30
2022-12-31T22:09:41.133Z,8.30
2022-12-31T22:12:08.303Z,8.20
2022-12-31T22:14:35.580Z,8.20
2022-12-31T22:17:03.186Z,8.20
2022-12-31T22:19:31.050Z,8.20
2022-12-31T22:22:03.680Z,8.20
2022-12-31T22:24:33.209Z,8.20
2022-12-31T22:27:00.564Z,8.20
2022-12-31T22:29:47.583Z,8.20
2022-12-31T22:32:14.579Z,8.20
2022-12-31T22:34:45.019Z,8.20
2022-12-31T22:37:35.757Z,8.20
2022-12-31T22:40:02.284Z,8.20
2022-12-31T22:42:29.533Z,8.10
2022-12-31T22:44:59.634Z,8.10
2022-12-31T22:47:26.742Z,8.20
2022-12-31T22:49:56.523Z,8.10
2022-12-31T22:52:23.694Z,8.10
2022-12-31T22:54:50.822Z,8.10
2022-12-31T22:57:23.094Z,8.10
2022-12-31T22:59:52.895Z,8.10
2022-12-31T23:02:29.527Z,8.10
2022-12-31T23:05:14.793Z,8.10
2022-12-31T23:07:43.880Z,8.10
2022-12-31T23:10:30.302Z,8.10
2022-12-31T23:12:58.869Z,8.10
2022-12-31T23:15:44.122Z,8.10
2022-12-31T23:18:29.846Z,8.10
2022-12-31T23:21:15.125Z,8.10
2022-12-31T23:23:42.172Z,8.10
2022-12-31T23:26:09.259Z,8.10
2022-12-31T23:28:36.294Z,8.10
2022-12-31T23:31:06.688Z,8.10
2022-12-31T23:33:33.716Z,8.10
2022-12-31T23:36:07.345Z,8.10
2022-12-31T23:38:34.344Z,8.10
2022-12-31T23:41:01.332Z,8.10
2022-12-31T23:43:28.369Z,8.10
2022-12-31T23:45:55.415Z,8.10
2022-12-31T23:48:22.403Z,8.10
2022-12-31T23:50:53.826Z,8.10
2022-12-31T23:53:24.581Z,8.10
2022-12-31T23:55:52.747Z,8.10
2022-12-31T23:58:21.230Z,8.10
